sensor_id;sensor_type;location;lat;lon;timestamp;pressure;altitude;pressure_sealevel;temperature;humidity
62237;BME280;69163;48.778;2.308;2023-07-08T00:02:20;100509.10;;;21.04;40.65
62237;BME280;69163;48.778;2.308;2023-07-08T00:04:45;100512.95;;;21.15;40.26
62237;BME280;69163;48.778;2.308;2023-07-08T00:07:11;100518.40;;;21.09;40.92
62237;BME280;69163;48.778;2.308;2023-07-08T00:09:35;100522.89;;;21.00;41.17
62237;BME280;69163;48.778;2.308;2023-07-08T00:12:01;100522.24;;;21.23;41.24
62237;BME280;69163;48.778;2.308;2023-07-08T00:14:26;100520.09;;;21.08;41.62
62237;BME280;69163;48.778;2.308;2023-07-08T00:16:52;100522.31;;;20.86;41.60
62237;BME280;69163;48.778;2.308;2023-07-08T00:19:17;100525.58;;;20.93;41.45
62237;BME280;69163;48.778;2.308;2023-07-08T00:21:42;100522.81;;;21.05;41.28
62237;BME280;69163;48.778;2.308;2023-07-08T00:24:07;100530.22;;;21.10;41.28
62237;BME280;69163;48.778;2.308;2023-07-08T00:26:33;100532.25;;;21.44;41.01
62237;BME280;69163;48.778;2.308;2023-07-08T00:28:58;100534.83;;;21.30;40.88
62237;BME280;69163;48.778;2.308;2023-07-08T00:31:24;100535.48;;;21.06;40.92
62237;BME280;69163;48.778;2.308;2023-07-08T00:33:49;100540.33;;;21.40;40.68
62237;BME280;69163;48.778;2.308;2023-07-08T00:36:15;100543.65;;;21.59;40.45
62237;BME280;69163;48.778;2.308;2023-07-08T00:38:39;100546.19;;;21.37;40.40
62237;BME280;69163;48.778;2.308;2023-07-08T00:41:09;100549.36;;;21.76;40.20
62237;BME280;69163;48.778;2.308;2023-07-08T00:43:36;100549.65;;;21.74;40.15
62237;BME280;69163;48.778;2.308;2023-07-08T00:46:03;100548.94;;;21.75;40.16
62237;BME280;69163;48.778;2.308;2023-07-08T00:48:24;100547.88;;;21.59;40.04
62237;BME280;69163;48.778;2.308;2023-07-08T00:50:45;100547.11;;;21.80;40.04
62237;BME280;69163;48.778;2.308;2023-07-08T00:53:22;100546.08;;;21.77;40.04
62237;BME280;69163;48.778;2.308;2023-07-08T00:55:37;100547.62;;;21.75;40.00
62237;BME280;69163;48.778;2.308;2023-07-08T00:58:02;100550.89;;;21.77;39.93
62237;BME280;69163;48.778;2.308;2023-07-08T01:00:27;100558.00;;;21.59;39.89
62237;BME280;69163;48.778;2.308;2023-07-08T01:02:54;100563.45;;;21.75;39.71
62237;BME280;69163;48.778;2.308;2023-07-08T01:05:19;100567.82;;;21.56;39.64
62237;BME280;69163;48.778;2.308;2023-07-08T01:07:45;100562.89;;;21.74;39.91
62237;BME280;69163;48.778;2.308;2023-07-08T01:10:12;100564.63;;;21.85;39.66
62237;BME280;69163;48.778;2.308;2023-07-08T01:12:38;100560.71;;;21.86;39.65
62237;BME280;69163;48.778;2.308;2023-07-08T01:15:00;100559.35;;;21.87;39.67
62237;BME280;69163;48.778;2.308;2023-07-08T01:17:24;100560.54;;;21.58;39.65
62237;BME280;69163;48.778;2.308;2023-07-08T01:19:50;100556.23;;;21.83;39.74
62237;BME280;69163;48.778;2.308;2023-07-08T01:22:14;100548.15;;;21.74;39.81
62237;BME280;69163;48.778;2.308;2023-07-08T01:24:41;100541.77;;;22.07;39.76
62237;BME280;69163;48.778;2.308;2023-07-08T01:27:08;100537.07;;;21.87;39.70
62237;BME280;69163;48.778;2.308;2023-07-08T01:29:30;100543.16;;;21.68;39.66
62237;BME280;69163;48.778;2.308;2023-07-08T01:31:55;100552.41;;;21.65;39.71
62237;BME280;69163;48.778;2.308;2023-07-08T01:34:20;100563.13;;;21.57;39.73
62237;BME280;69163;48.778;2.308;2023-07-08T01:36:52;100571.47;;;21.90;39.60
62237;BME280;69163;48.778;2.308;2023-07-08T01:39:14;100587.15;;;21.43;39.49
62237;BME280;69163;48.778;2.308;2023-07-08T01:41:36;100647.82;;;21.95;39.35
62237;BME280;69163;48.778;2.308;2023-07-08T01:44:02;100697.10;;;21.66;39.45
62237;BME280;69163;48.778;2.308;2023-07-08T01:46:27;100689.21;;;21.85;39.65
62237;BME280;69163;48.778;2.308;2023-07-08T01:48:54;100700.23;;;21.87;39.58
62237;BME280;69163;48.778;2.308;2023-07-08T01:51:18;100697.82;;;21.80;39.65
62237;BME280;69163;48.778;2.308;2023-07-08T01:53:44;100685.65;;;21.74;39.75
62237;BME280;69163;48.778;2.308;2023-07-08T01:56:10;100680.93;;;21.71;39.70
62237;BME280;69163;48.778;2.308;2023-07-08T01:58:34;100677.60;;;21.75;39.71
62237;BME280;69163;48.778;2.308;2023-07-08T02:00:59;100676.58;;;21.73;39.69
62237;BME280;69163;48.778;2.308;2023-07-08T02:03:24;100677.06;;;21.68;39.75
62237;BME280;69163;48.778;2.308;2023-07-08T02:05:49;100691.18;;;21.75;39.56
62237;BME280;69163;48.778;2.308;2023-07-08T02:08:15;100688.02;;;21.68;39.65
62237;BME280;69163;48.778;2.308;2023-07-08T02:10:42;100683.18;;;21.65;39.68
62237;BME280;69163;48.778;2.308;2023-07-08T02:13:06;100676.32;;;21.63;39.80
62237;BME280;69163;48.778;2.308;2023-07-08T02:15:30;100667.51;;;21.29;39.93
62237;BME280;69163;48.778;2.308;2023-07-08T02:17:55;100660.85;;;21.45;40.18
62237;BME280;69163;48.778;2.308;2023-07-08T02:20:21;100658.94;;;21.47;40.05
62237;BME280;69163;48.778;2.308;2023-07-08T02:22:46;100643.47;;;21.47;40.12
62237;BME280;69163;48.778;2.308;2023-07-08T02:25:12;100640.78;;;21.45;40.19
62237;BME280;69163;48.778;2.308;2023-07-08T02:27:37;100634.53;;;21.47;40.11
62237;BME280;69163;48.778;2.308;2023-07-08T02:30:02;100631.57;;;21.55;40.00
62237;BME280;69163;48.778;2.308;2023-07-08T02:32:28;100627.20;;;21.50;39.99
62237;BME280;69163;48.778;2.308;2023-07-08T02:34:52;100632.72;;;21.23;40.03
62237;BME280;69163;48.778;2.308;2023-07-08T02:37:19;100624.42;;;21.50;39.96
62237;BME280;69163;48.778;2.308;2023-07-08T02:39:43;100613.34;;;21.50;39.90
62237;BME280;69163;48.778;2.308;2023-07-08T02:42:08;100614.79;;;21.49;39.92
62237;BME280;69163;48.778;2.308;2023-07-08T02:44:33;100606.85;;;21.51;39.90
62237;BME280;69163;48.778;2.308;2023-07-08T02:46:59;100594.16;;;21.01;39.95
62237;BME280;69163;48.778;2.308;2023-07-08T02:49:24;100588.24;;;21.56;39.48
62237;BME280;69163;48.778;2.308;2023-07-08T02:51:49;100589.79;;;21.37;39.68
62237;BME280;69163;48.778;2.308;2023-07-08T02:54:14;100592.32;;;21.66;39.68
62237;BME280;69163;48.778;2.308;2023-07-08T02:56:39;100595.29;;;21.70;39.54
62237;BME280;69163;48.778;2.308;2023-07-08T02:59:05;100588.64;;;21.93;39.43
62237;BME280;69163;48.778;2.308;2023-07-08T03:01:30;100582.76;;;21.67;39.53
62237;BME280;69163;48.778;2.308;2023-07-08T03:03:55;100586.73;;;21.73;39.39
62237;BME280;69163;48.778;2.308;2023-07-08T03:06:21;100587.26;;;21.51;39.31
62237;BME280;69163;48.778;2.308;2023-07-08T03:08:45;100584.71;;;21.69;39.54
62237;BME280;69163;48.778;2.308;2023-07-08T03:11:12;100583.65;;;21.69;39.52
62237;BME280;69163;48.778;2.308;2023-07-08T03:13:36;100585.74;;;21.80;39.27
62237;BME280;69163;48.778;2.308;2023-07-08T03:16:04;100584.99;;;21.79;39.32
62237;BME280;69163;48.778;2.308;2023-07-08T03:18:27;100575.19;;;21.83;39.36
62237;BME280;69163;48.778;2.308;2023-07-08T03:20:53;100571.62;;;21.64;39.29
62237;BME280;69163;48.778;2.308;2023-07-08T03:23:18;100567.52;;;21.86;39.24
62237;BME280;69163;48.778;2.308;2023-07-08T03:25:43;100570.36;;;22.13;39.20
62237;BME280;69163;48.778;2.308;2023-07-08T03:28:08;100568.11;;;21.91;39.09
62237;BME280;69163;48.778;2.308;2023-07-08T03:30:34;100561.30;;;21.72;39.09
62237;BME280;69163;48.778;2.308;2023-07-08T03:33:00;100561.29;;;21.71;38.94
62237;BME280;69163;48.778;2.308;2023-07-08T03:35:24;100554.78;;;21.72;38.94
62237;BME280;69163;48.778;2.308;2023-07-08T03:37:50;100544.67;;;21.93;39.06
62237;BME280;69163;48.778;2.308;2023-07-08T03:40:15;100538.86;;;21.98;39.02
62237;BME280;69163;48.778;2.308;2023-07-08T03:42:40;100533.34;;;21.96;39.03
62237;BME280;69163;48.778;2.308;2023-07-08T03:45:06;100523.43;;;22.38;39.11
62237;BME280;69163;48.778;2.308;2023-07-08T03:47:31;100519.77;;;21.96;38.98
62237;BME280;69163;48.778;2.308;2023-07-08T03:49:56;100517.78;;;21.73;38.95
62237;BME280;69163;48.778;2.308;2023-07-08T03:52:21;100515.20;;;21.75;38.93
62237;BME280;69163;48.778;2.308;2023-07-08T03:54:46;100513.91;;;21.99;38.91
62237;BME280;69163;48.778;2.308;2023-07-08T03:57:12;100505.35;;;21.97;38.85
62237;BME280;69163;48.778;2.308;2023-07-08T03:59:37;100500.34;;;21.97;38.89
62237;BME280;69163;48.778;2.308;2023-07-08T04:02:03;100499.35;;;21.72;38.94
62237;BME280;69163;48.778;2.308;2023-07-08T04:04:28;100498.33;;;21.96;38.93
62237;BME280;69163;48.778;2.308;2023-07-08T04:06:53;100497.96;;;21.72;38.92
62237;BME280;69163;48.778;2.308;2023-07-08T04:09:18;100497.29;;;21.78;38.86
62237;BME280;69163;48.778;2.308;2023-07-08T04:11:43;100498.18;;;22.49;38.85
62237;BME280;69163;48.778;2.308;2023-07-08T04:14:09;100498.29;;;21.98;38.87
62237;BME280;69163;48.778;2.308;2023-07-08T04:16:45;100500.34;;;21.98;38.91
62237;BME280;69163;48.778;2.308;2023-07-08T04:18:59;100507.26;;;22.00;38.81
62237;BME280;69163;48.778;2.308;2023-07-08T04:21:25;100512.78;;;21.98;38.83
62237;BME280;69163;48.778;2.308;2023-07-08T04:23:49;100509.71;;;22.00;38.85
62237;BME280;69163;48.778;2.308;2023-07-08T04:26:15;100517.81;;;21.99;38.91
62237;BME280;69163;48.778;2.308;2023-07-08T04:28:40;100531.96;;;22.00;38.83
62237;BME280;69163;48.778;2.308;2023-07-08T04:31:05;100534.76;;;21.93;38.80
62237;BME280;69163;48.778;2.308;2023-07-08T04:33:31;100538.60;;;21.92;38.79
62237;BME280;69163;48.778;2.308;2023-07-08T04:35:55;100539.70;;;21.88;38.93
62237;BME280;69163;48.778;2.308;2023-07-08T04:38:23;100544.72;;;21.98;38.85
62237;BME280;69163;48.778;2.308;2023-07-08T04:40:46;100547.47;;;21.90;38.94
62237;BME280;69163;48.778;2.308;2023-07-08T04:43:12;100549.80;;;21.91;38.95
62237;BME280;69163;48.778;2.308;2023-07-08T04:45:37;100556.28;;;21.70;38.91
62237;BME280;69163;48.778;2.308;2023-07-08T04:48:02;100560.05;;;21.65;39.01
62237;BME280;69163;48.778;2.308;2023-07-08T04:50:27;100562.10;;;21.66;38.98
62237;BME280;69163;48.778;2.308;2023-07-08T04:52:52;100560.69;;;21.69;38.97
62237;BME280;69163;48.778;2.308;2023-07-08T04:55:19;100566.03;;;21.91;39.02
62237;BME280;69163;48.778;2.308;2023-07-08T04:57:43;100564.62;;;21.91;39.02
62237;BME280;69163;48.778;2.308;2023-07-08T05:00:14;100575.80;;;21.92;39.04
62237;BME280;69163;48.778;2.308;2023-07-08T05:02:34;100569.06;;;21.96;38.99
62237;BME280;69163;48.778;2.308;2023-07-08T05:04:58;100574.15;;;21.89;39.13
62237;BME280;69163;48.778;2.308;2023-07-08T05:07:24;100573.28;;;21.98;39.01
62237;BME280;69163;48.778;2.308;2023-07-08T05:09:48;100582.99;;;21.72;39.04
62237;BME280;69163;48.778;2.308;2023-07-08T05:12:14;100574.53;;;21.94;39.06
62237;BME280;69163;48.778;2.308;2023-07-08T05:14:40;100582.56;;;21.93;39.13
62237;BME280;69163;48.778;2.308;2023-07-08T05:17:05;100585.46;;;21.97;39.08
62237;BME280;69163;48.778;2.308;2023-07-08T05:19:30;100597.55;;;21.99;39.16
62237;BME280;69163;48.778;2.308;2023-07-08T05:21:55;100606.18;;;21.99;39.13
62237;BME280;69163;48.778;2.308;2023-07-08T05:24:20;100622.10;;;21.72;39.18
62237;BME280;69163;48.778;2.308;2023-07-08T05:26:46;100631.31;;;21.92;39.23
62237;BME280;69163;48.778;2.308;2023-07-08T05:29:11;100634.40;;;21.92;39.21
62237;BME280;69163;48.778;2.308;2023-07-08T05:31:36;100639.32;;;21.97;39.22
62237;BME280;69163;48.778;2.308;2023-07-08T05:34:01;100648.05;;;21.92;39.28
62237;BME280;69163;48.778;2.308;2023-07-08T05:36:27;100655.09;;;21.89;39.37
62237;BME280;69163;48.778;2.308;2023-07-08T05:38:52;100650.54;;;21.92;39.28
62237;BME280;69163;48.778;2.308;2023-07-08T05:41:17;100650.52;;;21.88;39.33
62237;BME280;69163;48.778;2.308;2023-07-08T05:43:42;100660.95;;;21.92;39.25
62237;BME280;69163;48.778;2.308;2023-07-08T05:46:08;100670.45;;;21.91;39.26
62237;BME280;69163;48.778;2.308;2023-07-08T05:48:32;100668.96;;;22.45;39.16
62237;BME280;69163;48.778;2.308;2023-07-08T05:50:58;100673.86;;;21.94;39.18
62237;BME280;69163;48.778;2.308;2023-07-08T05:53:23;100679.22;;;21.89;39.28
62237;BME280;69163;48.778;2.308;2023-07-08T05:55:49;100683.72;;;21.89;39.31
62237;BME280;69163;48.778;2.308;2023-07-08T05:58:14;100686.65;;;21.61;39.28
62237;BME280;69163;48.778;2.308;2023-07-08T06:00:39;100690.81;;;21.90;39.27
62237;BME280;69163;48.778;2.308;2023-07-08T06:03:04;100693.13;;;22.18;39.29
62237;BME280;69163;48.778;2.308;2023-07-08T06:05:29;100701.91;;;22.00;39.23
62237;BME280;69163;48.778;2.308;2023-07-08T06:07:54;100710.39;;;22.26;39.07
62237;BME280;69163;48.778;2.308;2023-07-08T06:10:20;100714.29;;;21.76;39.10
62237;BME280;69163;48.778;2.308;2023-07-08T06:12:45;100724.92;;;22.01;39.19
62237;BME280;69163;48.778;2.308;2023-07-08T06:15:11;100733.68;;;22.00;39.17
62237;BME280;69163;48.778;2.308;2023-07-08T06:17:35;100742.06;;;21.77;39.16
62237;BME280;69163;48.778;2.308;2023-07-08T06:20:00;100734.82;;;21.96;39.14
62237;BME280;69163;48.778;2.308;2023-07-08T06:22:25;100741.96;;;21.96;39.12
62237;BME280;69163;48.778;2.308;2023-07-08T06:24:51;100757.01;;;21.91;39.31
62237;BME280;69163;48.778;2.308;2023-07-08T06:27:17;100749.01;;;21.93;39.28
62237;BME280;69163;48.778;2.308;2023-07-08T06:29:42;100755.68;;;21.92;39.27
62237;BME280;69163;48.778;2.308;2023-07-08T06:32:08;100758.72;;;21.88;39.31
62237;BME280;69163;48.778;2.308;2023-07-08T06:34:32;100755.14;;;21.89;39.36
62237;BME280;69163;48.778;2.308;2023-07-08T06:36:57;100772.41;;;21.71;39.25
62237;BME280;69163;48.778;2.308;2023-07-08T06:39:23;100780.10;;;21.91;39.31
62237;BME280;69163;48.778;2.308;2023-07-08T06:41:47;100779.21;;;22.10;39.35
62237;BME280;69163;48.778;2.308;2023-07-08T06:44:13;100774.01;;;21.82;39.43
62237;BME280;69163;48.778;2.308;2023-07-08T06:46:39;100774.78;;;22.36;39.45
62237;BME280;69163;48.778;2.308;2023-07-08T06:49:04;100782.21;;;21.92;39.34
62237;BME280;69163;48.778;2.308;2023-07-08T06:51:29;100787.05;;;21.95;39.25
62237;BME280;69163;48.778;2.308;2023-07-08T06:53:54;100784.53;;;21.66;39.27
62237;BME280;69163;48.778;2.308;2023-07-08T06:56:20;100781.37;;;21.92;39.27
62237;BME280;69163;48.778;2.308;2023-07-08T06:58:44;100785.26;;;22.17;39.40
62237;BME280;69163;48.778;2.308;2023-07-08T07:01:10;100790.01;;;21.96;39.30
62237;BME280;69163;48.778;2.308;2023-07-08T07:03:35;100793.73;;;21.89;39.35
62237;BME280;69163;48.778;2.308;2023-07-08T07:06:01;100800.33;;;21.71;39.36
62237;BME280;69163;48.778;2.308;2023-07-08T07:08:26;100797.28;;;21.72;39.22
62237;BME280;69163;48.778;2.308;2023-07-08T07:10:51;100790.04;;;21.89;39.19
62237;BME280;69163;48.778;2.308;2023-07-08T07:13:17;100785.78;;;21.80;39.23
62237;BME280;69163;48.778;2.308;2023-07-08T07:15:41;100789.51;;;21.72;39.48
62237;BME280;69163;48.778;2.308;2023-07-08T07:18:06;100787.58;;;22.05;39.12
62237;BME280;69163;48.778;2.308;2023-07-08T07:20:35;100791.86;;;22.01;39.28
62237;BME280;69163;48.778;2.308;2023-07-08T07:22:57;100793.48;;;21.93;39.54
62237;BME280;69163;48.778;2.308;2023-07-08T07:25:23;100790.77;;;21.47;39.56
62237;BME280;69163;48.778;2.308;2023-07-08T07:27:48;100785.76;;;21.74;39.52
62237;BME280;69163;48.778;2.308;2023-07-08T07:30:13;100785.75;;;21.78;39.45
62237;BME280;69163;48.778;2.308;2023-07-08T07:32:38;100789.01;;;21.56;39.40
62237;BME280;69163;48.778;2.308;2023-07-08T07:35:05;100790.34;;;21.85;39.36
62237;BME280;69163;48.778;2.308;2023-07-08T07:37:29;100790.75;;;21.66;39.30
62237;BME280;69163;48.778;2.308;2023-07-08T07:39:54;100790.36;;;22.00;39.16
62237;BME280;69163;48.778;2.308;2023-07-08T07:42:20;100795.78;;;21.99;39.20
62237;BME280;69163;48.778;2.308;2023-07-08T07:44:45;100795.33;;;21.99;39.20
62237;BME280;69163;48.778;2.308;2023-07-08T07:47:11;100801.50;;;22.07;39.13
62237;BME280;69163;48.778;2.308;2023-07-08T07:49:36;100796.90;;;22.13;39.02
62237;BME280;69163;48.778;2.308;2023-07-08T07:52:01;100792.51;;;22.18;38.96
62237;BME280;69163;48.778;2.308;2023-07-08T07:54:26;100795.01;;;21.94;38.93
62237;BME280;69163;48.778;2.308;2023-07-08T07:56:51;100798.49;;;22.19;38.93
62237;BME280;69163;48.778;2.308;2023-07-08T07:59:16;100801.09;;;22.19;38.94
62237;BME280;69163;48.778;2.308;2023-07-08T08:01:41;100807.63;;;21.95;38.95
62237;BME280;69163;48.778;2.308;2023-07-08T08:04:06;100808.30;;;22.23;38.86
62237;BME280;69163;48.778;2.308;2023-07-08T08:06:32;100808.26;;;22.18;39.00
62237;BME280;69163;48.778;2.308;2023-07-08T08:08:57;100805.18;;;22.15;39.06
62237;BME280;69163;48.778;2.308;2023-07-08T08:11:22;100809.38;;;21.92;39.05
62237;BME280;69163;48.778;2.308;2023-07-08T08:13:47;100807.27;;;22.19;38.95
62237;BME280;69163;48.778;2.308;2023-07-08T08:16:13;100810.12;;;22.27;38.88
62237;BME280;69163;48.778;2.308;2023-07-08T08:18:38;100807.06;;;21.97;38.99
62237;BME280;69163;48.778;2.308;2023-07-08T08:21:03;100811.48;;;22.19;39.07
62237;BME280;69163;48.778;2.308;2023-07-08T08:23:28;100818.91;;;21.99;39.02
62237;BME280;69163;48.778;2.308;2023-07-08T08:25:53;100825.61;;;22.19;39.02
62237;BME280;69163;48.778;2.308;2023-07-08T08:28:19;100822.01;;;21.98;39.06
62237;BME280;69163;48.778;2.308;2023-07-08T08:30:47;100830.03;;;22.23;39.10
62237;BME280;69163;48.778;2.308;2023-07-08T08:33:09;100833.72;;;22.22;39.07
62237;BME280;69163;48.778;2.308;2023-07-08T08:35:35;100836.42;;;21.80;38.99
62237;BME280;69163;48.778;2.308;2023-07-08T08:38:00;100840.27;;;22.23;39.09
62237;BME280;69163;48.778;2.308;2023-07-08T08:40:25;100841.31;;;22.22;39.13
62237;BME280;69163;48.778;2.308;2023-07-08T08:42:56;100836.98;;;22.31;38.98
62237;BME280;69163;48.778;2.308;2023-07-08T08:45:17;100834.05;;;22.32;38.96
62237;BME280;69163;48.778;2.308;2023-07-08T08:47:43;100831.61;;;22.38;38.91
62237;BME280;69163;48.778;2.308;2023-07-08T08:52:31;100830.31;;;22.14;38.92
62237;BME280;69163;48.778;2.308;2023-07-08T08:54:56;100832.03;;;22.35;38.96
62237;BME280;69163;48.778;2.308;2023-07-08T08:57:32;100831.32;;;22.40;38.89
62237;BME280;69163;48.778;2.308;2023-07-08T08:59:52;100835.06;;;22.43;38.88
62237;BME280;69163;48.778;2.308;2023-07-08T09:02:25;100835.11;;;22.42;38.86
62237;BME280;69163;48.778;2.308;2023-07-08T09:04:37;100832.17;;;22.17;38.92
62237;BME280;69163;48.778;2.308;2023-07-08T09:07:08;100840.54;;;22.47;38.86
62237;BME280;69163;48.778;2.308;2023-07-08T09:09:32;100835.93;;;22.46;38.91
62237;BME280;69163;48.778;2.308;2023-07-08T09:11:57;100841.19;;;22.19;38.97
62237;BME280;69163;48.778;2.308;2023-07-08T09:14:23;100839.95;;;22.44;39.00
62237;BME280;69163;48.778;2.308;2023-07-08T09:16:49;100842.53;;;22.20;38.98
62237;BME280;69163;48.778;2.308;2023-07-08T09:19:12;100839.42;;;21.97;39.02
62237;BME280;69163;48.778;2.308;2023-07-08T09:21:42;100836.11;;;22.20;39.02
62237;BME280;69163;48.778;2.308;2023-07-08T09:24:03;100834.05;;;22.45;38.99
62237;BME280;69163;48.778;2.308;2023-07-08T09:26:25;100834.66;;;22.24;38.89
62237;BME280;69163;48.778;2.308;2023-07-08T09:28:49;100840.81;;;22.49;38.95
62237;BME280;69163;48.778;2.308;2023-07-08T09:31:22;100839.02;;;22.47;39.03
62237;BME280;69163;48.778;2.308;2023-07-08T09:33:40;100837.04;;;22.50;38.97
62237;BME280;69163;48.778;2.308;2023-07-08T09:36:17;100835.50;;;22.55;38.91
62237;BME280;69163;48.778;2.308;2023-07-08T09:38:34;100835.89;;;22.58;38.81
62237;BME280;69163;48.778;2.308;2023-07-08T09:40:56;100839.28;;;22.36;38.80
62237;BME280;69163;48.778;2.308;2023-07-08T09:43:25;100839.71;;;22.62;38.82
62237;BME280;69163;48.778;2.308;2023-07-08T09:45:48;100839.67;;;22.28;38.97
62237;BME280;69163;48.778;2.308;2023-07-08T09:48:21;100835.18;;;22.31;38.91
62237;BME280;69163;48.778;2.308;2023-07-08T09:50:36;100838.15;;;22.56;38.88
62237;BME280;69163;48.778;2.308;2023-07-08T09:53:02;100831.02;;;22.37;38.77
62237;BME280;69163;48.778;2.308;2023-07-08T09:55:27;100828.67;;;22.65;38.69
62237;BME280;69163;48.778;2.308;2023-07-08T09:57:54;100831.33;;;22.43;38.74
62237;BME280;69163;48.778;2.308;2023-07-08T10:00:26;100829.42;;;22.43;39.89
62237;BME280;69163;48.778;2.308;2023-07-08T10:02:46;100822.15;;;22.01;40.96
62237;BME280;69163;48.778;2.308;2023-07-08T10:05:15;100819.95;;;21.88;41.06
62237;BME280;69163;48.778;2.308;2023-07-08T10:07:34;100817.51;;;22.15;41.24
62237;BME280;69163;48.778;2.308;2023-07-08T10:10:02;100813.72;;;22.25;41.50
62237;BME280;69163;48.778;2.308;2023-07-08T10:12:24;100810.76;;;22.03;41.72
62237;BME280;69163;48.778;2.308;2023-07-08T10:14:53;100812.04;;;22.11;41.58
62237;BME280;69163;48.778;2.308;2023-07-08T10:17:17;100812.37;;;21.87;41.88
62237;BME280;69163;48.778;2.308;2023-07-08T10:19:40;100811.70;;;21.53;42.12
62237;BME280;69163;48.778;2.308;2023-07-08T10:22:16;100816.70;;;21.47;42.31
62237;BME280;69163;48.778;2.308;2023-07-08T10:24:40;100815.64;;;21.53;42.24
62237;BME280;69163;48.778;2.308;2023-07-08T10:27:02;100813.77;;;21.74;42.43
62237;BME280;69163;48.778;2.308;2023-07-08T10:29:28;100816.14;;;21.87;42.10
62237;BME280;69163;48.778;2.308;2023-07-08T10:31:51;100817.38;;;22.14;41.70
62237;BME280;69163;48.778;2.308;2023-07-08T10:34:23;100821.17;;;22.32;41.46
62237;BME280;69163;48.778;2.308;2023-07-08T10:36:46;100819.86;;;22.25;41.26
62237;BME280;69163;48.778;2.308;2023-07-08T10:39:19;100816.90;;;22.63;41.16
62237;BME280;69163;48.778;2.308;2023-07-08T10:41:34;100811.39;;;22.65;41.24
62237;BME280;69163;48.778;2.308;2023-07-08T10:44:02;100812.49;;;22.43;41.20
62237;BME280;69163;48.778;2.308;2023-07-08T10:46:28;100815.54;;;22.49;41.24
62237;BME280;69163;48.778;2.308;2023-07-08T10:48:56;100811.24;;;22.27;41.69
62237;BME280;69163;48.778;2.308;2023-07-08T10:51:18;100811.99;;;22.56;41.93
62237;BME280;69163;48.778;2.308;2023-07-08T10:53:47;100810.89;;;22.55;41.95
62237;BME280;69163;48.778;2.308;2023-07-08T10:56:01;100815.76;;;22.80;42.10
62237;BME280;69163;48.778;2.308;2023-07-08T11:00:57;100818.63;;;22.68;41.91
62237;BME280;69163;48.778;2.308;2023-07-08T11:03:33;100817.29;;;22.68;41.97
62237;BME280;69163;48.778;2.308;2023-07-08T11:05:43;100814.18;;;22.63;41.95
62237;BME280;69163;48.778;2.308;2023-07-08T11:08:12;100808.65;;;22.36;41.96
62237;BME280;69163;48.778;2.308;2023-07-08T11:10:35;100808.36;;;22.63;41.89
62237;BME280;69163;48.778;2.308;2023-07-08T11:13:00;100804.59;;;22.62;41.89
62237;BME280;69163;48.778;2.308;2023-07-08T11:15:25;100802.37;;;22.38;41.87
62237;BME280;69163;48.778;2.308;2023-07-08T11:17:51;100801.38;;;22.60;41.90
62237;BME280;69163;48.778;2.308;2023-07-08T11:20:16;100801.79;;;22.69;41.74
62237;BME280;69163;48.778;2.308;2023-07-08T11:22:43;100796.89;;;22.45;41.74
62237;BME280;69163;48.778;2.308;2023-07-08T11:25:04;100798.42;;;22.67;41.78
62237;BME280;69163;48.778;2.308;2023-07-08T11:27:30;100795.46;;;22.67;41.79
62237;BME280;69163;48.778;2.308;2023-07-08T11:29:55;100797.34;;;22.44;41.72
62237;BME280;69163;48.778;2.308;2023-07-08T11:32:20;100791.10;;;22.62;41.82
62237;BME280;69163;48.778;2.308;2023-07-08T11:34:46;100789.28;;;22.35;41.84
62237;BME280;69163;48.778;2.308;2023-07-08T11:37:08;100791.55;;;22.39;41.75
62237;BME280;69163;48.778;2.308;2023-07-08T11:39:38;100792.15;;;22.39;41.81
62237;BME280;69163;48.778;2.308;2023-07-08T11:42:12;100786.59;;;22.88;41.73
62237;BME280;69163;48.778;2.308;2023-07-08T11:44:24;100787.98;;;22.85;41.78
62237;BME280;69163;48.778;2.308;2023-07-08T11:46:54;100780.18;;;22.37;41.78
62237;BME280;69163;48.778;2.308;2023-07-08T11:49:15;100781.93;;;22.63;41.74
62237;BME280;69163;48.778;2.308;2023-07-08T11:51:41;100779.57;;;22.69;41.61
62237;BME280;69163;48.778;2.308;2023-07-08T11:54:11;100782.39;;;22.68;41.64
62237;BME280;69163;48.778;2.308;2023-07-08T11:59:08;100774.83;;;22.44;41.49
62237;BME280;69163;48.778;2.308;2023-07-08T12:01:25;100773.90;;;22.67;41.52
62237;BME280;69163;48.778;2.308;2023-07-08T12:03:49;100773.87;;;22.44;41.46
62237;BME280;69163;48.778;2.308;2023-07-08T12:08:37;100766.77;;;22.53;41.30
62237;BME280;69163;48.778;2.308;2023-07-08T12:11:01;100763.78;;;22.97;41.29
62237;BME280;69163;48.778;2.308;2023-07-08T12:13:27;100763.89;;;22.73;41.33
62237;BME280;69163;48.778;2.308;2023-07-08T12:15:52;100760.14;;;22.72;41.56
62237;BME280;69163;48.778;2.308;2023-07-08T12:18:22;100765.80;;;22.69;42.73
62237;BME280;69163;48.778;2.308;2023-07-08T12:20:45;100769.87;;;22.72;43.31
62237;BME280;69163;48.778;2.308;2023-07-08T12:23:12;100762.85;;;22.53;43.56
62237;BME280;69163;48.778;2.308;2023-07-08T12:25:34;100750.74;;;22.49;43.93
62237;BME280;69163;48.778;2.308;2023-07-08T12:27:58;100746.98;;;22.46;44.24
62237;BME280;69163;48.778;2.308;2023-07-08T12:30:25;100747.00;;;22.46;44.26
62237;BME280;69163;48.778;2.308;2023-07-08T12:32:49;100751.05;;;22.70;44.48
62237;BME280;69163;48.778;2.308;2023-07-08T12:35:22;100755.77;;;22.49;44.53
62237;BME280;69163;48.778;2.308;2023-07-08T12:37:40;100754.47;;;22.76;44.74
62237;BME280;69163;48.778;2.308;2023-07-08T12:40:10;100756.74;;;22.74;44.84
62237;BME280;69163;48.778;2.308;2023-07-08T12:42:31;100755.59;;;22.70;42.96
62237;BME280;69163;48.778;2.308;2023-07-08T12:44:55;100758.03;;;22.73;42.96
62237;BME280;69163;48.778;2.308;2023-07-08T12:47:20;100756.25;;;22.99;43.18
62237;BME280;69163;48.778;2.308;2023-07-08T12:49:46;100754.70;;;23.00;43.13